sensor_id;sensor_type;location;lat;lon;timestamp;pressure;altitude;pressure_sealevel;temperature;humidity
20009;BME280;10165;42.662;23.260;2022-07-29T00:02:25;94346.63;;;21.62;65.75
20009;BME280;10165;42.662;23.260;2022-07-29T00:04:52;94348.03;;;21.39;66.25
20009;BME280;10165;42.662;23.260;2022-07-29T00:07:19;94357.22;;;21.19;67.42
20009;BME280;10165;42.662;23.260;2022-07-29T00:09:46;94356.66;;;21.65;65.75
20009;BME280;10165;42.662;23.260;2022-07-29T00:12:19;94358.56;;;21.98;64.65
20009;BME280;10165;42.662;23.260;2022-07-29T00:14:53;94344.97;;;21.98;64.21
20009;BME280;10165;42.662;23.260;2022-07-29T00:17:20;94339.06;;;22.03;63.77
20009;BME280;10165;42.662;23.260;2022-07-29T00:19:47;94341.59;;;22.40;62.46
20009;BME280;10165;42.662;23.260;2022-07-29T00:22:14;94324.09;;;22.42;62.48
20009;BME280;10165;42.662;23.260;2022-07-29T00:24:41;94323.38;;;22.84;60.51
20009;BME280;10165;42.662;23.260;2022-07-29T00:27:07;94327.13;;;22.70;60.93
20009;BME280;10165;42.662;23.260;2022-07-29T00:29:34;94341.53;;;22.91;60.20
20009;BME280;10165;42.662;23.260;2022-07-29T00:32:02;94336.41;;;22.50;60.92
20009;BME280;10165;42.662;23.260;2022-07-29T00:34:29;94334.81;;;22.75;61.26
20009;BME280;10165;42.662;23.260;2022-07-29T00:37:15;94335.75;;;21.92;62.97
20009;BME280;10165;42.662;23.260;2022-07-29T00:39:42;94332.22;;;22.18;62.74
20009;BME280;10165;42.662;23.260;2022-07-29T00:42:09;94341.59;;;22.40;61.91
20009;BME280;10165;42.662;23.260;2022-07-29T00:44:40;94334.16;;;22.68;60.15
20009;BME280;10165;42.662;23.260;2022-07-29T00:47:07;94335.50;;;22.56;60.54
20009;BME280;10165;42.662;23.260;2022-07-29T00:49:35;94344.94;;;22.25;61.62
20009;BME280;10165;42.662;23.260;2022-07-29T00:52:06;94342.88;;;22.32;61.38
20009;BME280;10165;42.662;23.260;2022-07-29T00:54:34;94348.72;;;22.81;59.79
20009;BME280;10165;42.662;23.260;2022-07-29T00:57:10;94338.94;;;22.60;60.27
20009;BME280;10165;42.662;23.260;2022-07-29T00:59:37;94342.28;;;22.71;59.92
20009;BME280;10165;42.662;23.260;2022-07-29T01:02:04;94338.59;;;22.08;61.58
20009;BME280;10165;42.662;23.260;2022-07-29T01:04:31;94331.63;;;22.07;60.95
20009;BME280;10165;42.662;23.260;2022-07-29T01:07:00;94336.16;;;21.87;62.42
20009;BME280;10165;42.662;23.260;2022-07-29T01:09:28;94328.44;;;22.12;61.67
20009;BME280;10165;42.662;23.260;2022-07-29T01:12:08;94318.66;;;22.42;61.53
20009;BME280;10165;42.662;23.260;2022-07-29T01:14:36;94323.66;;;22.66;60.40
20009;BME280;10165;42.662;23.260;2022-07-29T01:25:53;94313.88;;;22.72;59.85
20009;BME280;10165;42.662;23.260;2022-07-29T01:31:12;94316.19;;;22.24;61.76
20009;BME280;10165;42.662;23.260;2022-07-29T01:34:05;94311.75;;;21.83;63.93
20009;BME280;10165;42.662;23.260;2022-07-29T01:36:36;94308.00;;;22.01;63.61
20009;BME280;10165;42.662;23.260;2022-07-29T01:39:10;94310.50;;;21.88;64.08
20009;BME280;10165;42.662;23.260;2022-07-29T01:41:41;94305.28;;;21.43;64.86
20009;BME280;10165;42.662;23.260;2022-07-29T01:44:26;94308.84;;;20.69;67.78
20009;BME280;10165;42.662;23.260;2022-07-29T01:46:58;94312.69;;;20.72;68.07
20009;BME280;10165;42.662;23.260;2022-07-29T01:49:30;94310.28;;;20.81;69.34
20009;BME280;10165;42.662;23.260;2022-07-29T01:52:15;94308.28;;;21.53;66.23
20009;BME280;10165;42.662;23.260;2022-07-29T01:54:51;94304.69;;;21.86;64.69
20009;BME280;10165;42.662;23.260;2022-07-29T01:57:21;94305.78;;;22.19;63.46
20009;BME280;10165;42.662;23.260;2022-07-29T01:59:52;94305.81;;;21.92;63.66
20009;BME280;10165;42.662;23.260;2022-07-29T02:02:21;94302.94;;;22.03;63.74
20009;BME280;10165;42.662;23.260;2022-07-29T02:04:50;94304.84;;;22.29;62.82
20009;BME280;10165;42.662;23.260;2022-07-29T02:07:20;94295.78;;;22.35;62.65
20009;BME280;10165;42.662;23.260;2022-07-29T02:09:49;94296.16;;;22.61;61.27
20009;BME280;10165;42.662;23.260;2022-07-29T02:12:17;94290.53;;;22.71;61.91
20009;BME280;10165;42.662;23.260;2022-07-29T02:14:47;94290.13;;;22.93;60.79
20009;BME280;10165;42.662;23.260;2022-07-29T02:17:31;94290.75;;;22.80;60.61
20009;BME280;10165;42.662;23.260;2022-07-29T02:20:00;94283.56;;;22.90;60.29
20009;BME280;10165;42.662;23.260;2022-07-29T02:22:29;94289.16;;;22.60;61.39
20009;BME280;10165;42.662;23.260;2022-07-29T02:24:58;94285.56;;;21.93;63.80
20009;BME280;10165;42.662;23.260;2022-07-29T02:27:26;94283.16;;;21.45;65.60
20009;BME280;10165;42.662;23.260;2022-07-29T02:29:55;94287.38;;;21.19;66.87
20009;BME280;10165;42.662;23.260;2022-07-29T02:32:25;94281.63;;;21.10;68.13
20009;BME280;10165;42.662;23.260;2022-07-29T02:34:54;94281.59;;;21.44;67.00
20009;BME280;10165;42.662;23.260;2022-07-29T02:37:23;94274.84;;;21.56;65.79
20009;BME280;10165;42.662;23.260;2022-07-29T02:39:52;94268.03;;;21.71;66.02
20009;BME280;10165;42.662;23.260;2022-07-29T02:42:22;94259.81;;;22.01;64.88
20009;BME280;10165;42.662;23.260;2022-07-29T02:44:50;94250.41;;;22.06;64.70
20009;BME280;10165;42.662;23.260;2022-07-29T02:47:24;94255.59;;;21.97;64.51
20009;BME280;10165;42.662;23.260;2022-07-29T02:50:02;94263.13;;;21.85;64.66
20009;BME280;10165;42.662;23.260;2022-07-29T02:52:37;94260.22;;;21.73;64.75
20009;BME280;10165;42.662;23.260;2022-07-29T02:55:22;94259.63;;;21.62;65.14
20009;BME280;10165;42.662;23.260;2022-07-29T02:58:01;94266.78;;;21.75;65.34
20009;BME280;10165;42.662;23.260;2022-07-29T03:00:30;94266.97;;;21.91;64.98
20009;BME280;10165;42.662;23.260;2022-07-29T03:03:03;94269.63;;;21.95;64.68
20009;BME280;10165;42.662;23.260;2022-07-29T03:05:34;94268.94;;;22.37;63.36
20009;BME280;10165;42.662;23.260;2022-07-29T03:08:04;94263.13;;;22.12;63.47
20009;BME280;10165;42.662;23.260;2022-07-29T03:10:33;94269.66;;;22.42;62.51
20009;BME280;10165;42.662;23.260;2022-07-29T03:13:00;94270.81;;;22.40;63.16
20009;BME280;10165;42.662;23.260;2022-07-29T03:15:28;94274.97;;;22.25;62.90
20009;BME280;10165;42.662;23.260;2022-07-29T03:17:55;94275.44;;;22.20;63.62
20009;BME280;10165;42.662;23.260;2022-07-29T03:20:23;94275.81;;;22.46;62.81
20009;BME280;10165;42.662;23.260;2022-07-29T03:22:50;94279.44;;;22.59;62.21
20009;BME280;10165;42.662;23.260;2022-07-29T03:25:18;94278.59;;;22.85;61.25
20009;BME280;10165;42.662;23.260;2022-07-29T03:27:46;94282.44;;;22.88;61.05
20009;BME280;10165;42.662;23.260;2022-07-29T03:30:14;94278.28;;;23.03;60.52
20009;BME280;10165;42.662;23.260;2022-07-29T03:32:48;94288.06;;;22.77;61.10
20009;BME280;10165;42.662;23.260;2022-07-29T03:35:18;94282.94;;;22.82;61.24
20009;BME280;10165;42.662;23.260;2022-07-29T03:37:46;94275.66;;;22.76;61.27
20009;BME280;10165;42.662;23.260;2022-07-29T03:40:22;94283.84;;;22.76;61.34
20009;BME280;10165;42.662;23.260;2022-07-29T03:42:51;94288.25;;;22.66;61.01
20009;BME280;10165;42.662;23.260;2022-07-29T03:45:21;94287.56;;;21.89;63.46
20009;BME280;10165;42.662;23.260;2022-07-29T03:47:51;94295.13;;;21.48;65.86
20009;BME280;10165;42.662;23.260;2022-07-29T03:50:27;94283.41;;;21.54;65.67
20009;BME280;10165;42.662;23.260;2022-07-29T03:52:55;94286.53;;;21.79;65.41
20009;BME280;10165;42.662;23.260;2022-07-29T03:55:21;94287.13;;;21.94;64.97
20009;BME280;10165;42.662;23.260;2022-07-29T03:57:49;94286.50;;;21.83;65.31
20009;BME280;10165;42.662;23.260;2022-07-29T04:00:16;94293.06;;;22.12;64.56
20009;BME280;10165;42.662;23.260;2022-07-29T04:02:43;94295.69;;;21.35;66.87
20009;BME280;10165;42.662;23.260;2022-07-29T04:05:15;94298.97;;;21.54;66.60
20009;BME280;10165;42.662;23.260;2022-07-29T04:07:47;94295.66;;;21.66;66.05
20009;BME280;10165;42.662;23.260;2022-07-29T04:10:15;94289.66;;;21.78;65.26
20009;BME280;10165;42.662;23.260;2022-07-29T04:12:56;94288.81;;;21.58;66.17
20009;BME280;10165;42.662;23.260;2022-07-29T04:15:22;94294.31;;;21.77;65.43
20009;BME280;10165;42.662;23.260;2022-07-29T04:17:49;94286.25;;;22.24;64.09
20009;BME280;10165;42.662;23.260;2022-07-29T04:20:16;94284.84;;;22.39;63.86
20009;BME280;10165;42.662;23.260;2022-07-29T04:22:43;94290.00;;;22.33;63.78
20009;BME280;10165;42.662;23.260;2022-07-29T04:25:09;94293.81;;;22.13;64.33
20009;BME280;10165;42.662;23.260;2022-07-29T04:27:36;94288.91;;;22.27;63.98
20009;BME280;10165;42.662;23.260;2022-07-29T04:30:23;94292.06;;;22.49;63.51
20009;BME280;10165;42.662;23.260;2022-07-29T04:32:49;94305.63;;;22.53;63.25
20009;BME280;10165;42.662;23.260;2022-07-29T04:35:16;94304.56;;;22.70;63.20
20009;BME280;10165;42.662;23.260;2022-07-29T04:37:43;94300.56;;;22.51;63.60
20009;BME280;10165;42.662;23.260;2022-07-29T04:40:10;94299.97;;;22.17;64.42
20009;BME280;10165;42.662;23.260;2022-07-29T04:42:37;94301.09;;;22.42;64.04
20009;BME280;10165;42.662;23.260;2022-07-29T04:45:12;94301.59;;;22.61;63.06
20009;BME280;10165;42.662;23.260;2022-07-29T04:47:40;94310.16;;;22.36;64.42
20009;BME280;10165;42.662;23.260;2022-07-29T04:50:08;94306.41;;;22.53;64.45
20009;BME280;10165;42.662;23.260;2022-07-29T04:52:35;94309.53;;;22.52;63.49
20009;BME280;10165;42.662;23.260;2022-07-29T04:55:03;94312.69;;;22.93;62.73
20009;BME280;10165;42.662;23.260;2022-07-29T04:57:29;94317.94;;;23.04;62.11
20009;BME280;10165;42.662;23.260;2022-07-29T04:59:56;94315.09;;;23.11;60.98
20009;BME280;10165;42.662;23.260;2022-07-29T05:02:23;94314.38;;;22.64;62.02
20009;BME280;10165;42.662;23.260;2022-07-29T05:04:50;94317.94;;;22.61;62.69
20009;BME280;10165;42.662;23.260;2022-07-29T05:07:16;94316.97;;;23.14;61.73
20009;BME280;10165;42.662;23.260;2022-07-29T05:09:43;94316.81;;;23.41;61.04
20009;BME280;10165;42.662;23.260;2022-07-29T05:12:10;94315.34;;;23.36;60.39
20009;BME280;10165;42.662;23.260;2022-07-29T05:14:37;94319.75;;;23.69;59.12
20009;BME280;10165;42.662;23.260;2022-07-29T05:17:04;94316.94;;;23.73;59.65
20009;BME280;10165;42.662;23.260;2022-07-29T05:19:30;94325.75;;;23.45;60.18
20009;BME280;10165;42.662;23.260;2022-07-29T05:21:58;94317.97;;;23.43;59.65
20009;BME280;10165;42.662;23.260;2022-07-29T05:24:26;94317.25;;;23.39;59.91
20009;BME280;10165;42.662;23.260;2022-07-29T05:26:53;94315.09;;;23.50;59.62
20009;BME280;10165;42.662;23.260;2022-07-29T05:29:19;94316.03;;;23.96;58.53
20009;BME280;10165;42.662;23.260;2022-07-29T05:32:06;94316.16;;;23.56;59.10
20009;BME280;10165;42.662;23.260;2022-07-29T05:34:33;94312.91;;;23.42;60.08
20009;BME280;10165;42.662;23.260;2022-07-29T05:37:00;94317.31;;;23.75;59.89
20009;BME280;10165;42.662;23.260;2022-07-29T05:39:27;94317.91;;;24.18;58.66
20009;BME280;10165;42.662;23.260;2022-07-29T05:42:13;94318.31;;;23.81;58.45
20009;BME280;10165;42.662;23.260;2022-07-29T05:44:40;94318.19;;;24.04;58.10
20009;BME280;10165;42.662;23.260;2022-07-29T05:47:07;94320.63;;;24.35;57.12
20009;BME280;10165;42.662;23.260;2022-07-29T05:49:33;94324.31;;;23.92;57.27
20009;BME280;10165;42.662;23.260;2022-07-29T05:52:00;94323.16;;;24.09;56.58
20009;BME280;10165;42.662;23.260;2022-07-29T05:54:27;94330.94;;;24.43;56.66
20009;BME280;10165;42.662;23.260;2022-07-29T05:56:54;94323.03;;;23.97;57.81
20009;BME280;10165;42.662;23.260;2022-07-29T05:59:20;94326.25;;;24.27;56.63
20009;BME280;10165;42.662;23.260;2022-07-29T06:01:52;94324.31;;;24.44;58.39
20009;BME280;10165;42.662;23.260;2022-07-29T06:04:19;94335.94;;;23.76;57.48
20009;BME280;10165;42.662;23.260;2022-07-29T06:06:46;94329.75;;;24.44;58.06
20009;BME280;10165;42.662;23.260;2022-07-29T06:09:13;94334.09;;;24.58;57.89
20009;BME280;10165;42.662;23.260;2022-07-29T06:11:41;94330.31;;;25.00;56.30
20009;BME280;10165;42.662;23.260;2022-07-29T06:14:07;94335.03;;;24.67;55.63
20009;BME280;10165;42.662;23.260;2022-07-29T06:16:34;94331.88;;;24.20;56.67
20009;BME280;10165;42.662;23.260;2022-07-29T06:19:01;94335.16;;;24.12;57.16
20009;BME280;10165;42.662;23.260;2022-07-29T06:21:28;94331.69;;;24.92;55.13
20009;BME280;10165;42.662;23.260;2022-07-29T06:23:58;94328.81;;;25.12;54.10
20009;BME280;10165;42.662;23.260;2022-07-29T06:26:26;94330.75;;;25.56;53.33
20009;BME280;10165;42.662;23.260;2022-07-29T06:28:57;94328.66;;;25.60;53.09
20009;BME280;10165;42.662;23.260;2022-07-29T06:31:24;94336.59;;;25.71;52.71
20009;BME280;10165;42.662;23.260;2022-07-29T06:33:50;94327.56;;;25.58;52.56
20009;BME280;10165;42.662;23.260;2022-07-29T06:36:20;94326.25;;;24.76;54.08
20009;BME280;10165;42.662;23.260;2022-07-29T06:38:49;94328.63;;;24.90;53.68
20009;BME280;10165;42.662;23.260;2022-07-29T06:41:17;94326.50;;;25.39;53.50
20009;BME280;10165;42.662;23.260;2022-07-29T06:43:45;94326.31;;;24.89;54.33
20009;BME280;10165;42.662;23.260;2022-07-29T06:46:20;94326.91;;;25.54;52.52
20009;BME280;10165;42.662;23.260;2022-07-29T06:48:49;94321.41;;;26.21;50.81
20009;BME280;10165;42.662;23.260;2022-07-29T06:51:16;94321.13;;;25.52;53.41
20009;BME280;10165;42.662;23.260;2022-07-29T06:53:50;94320.41;;;25.89;51.66
20009;BME280;10165;42.662;23.260;2022-07-29T06:56:29;94322.38;;;25.89;51.86
20009;BME280;10165;42.662;23.260;2022-07-29T06:58:57;94319.66;;;25.47;52.96
20009;BME280;10165;42.662;23.260;2022-07-29T07:01:23;94312.47;;;25.66;52.58
20009;BME280;10165;42.662;23.260;2022-07-29T07:03:50;94324.31;;;25.63;53.03
20009;BME280;10165;42.662;23.260;2022-07-29T07:06:17;94317.91;;;26.20;50.94
20009;BME280;10165;42.662;23.260;2022-07-29T07:08:43;94315.78;;;26.49;50.40
20009;BME280;10165;42.662;23.260;2022-07-29T07:11:10;94318.66;;;26.46;50.13
20009;BME280;10165;42.662;23.260;2022-07-29T07:13:37;94310.50;;;26.68;49.07
20009;BME280;10165;42.662;23.260;2022-07-29T07:16:04;94313.59;;;26.57;51.31
20009;BME280;10165;42.662;23.260;2022-07-29T07:18:31;94315.47;;;25.72;51.69
20009;BME280;10165;42.662;23.260;2022-07-29T07:20:58;94311.75;;;26.41;50.78
20009;BME280;10165;42.662;23.260;2022-07-29T07:23:25;94316.13;;;26.26;50.84
20009;BME280;10165;42.662;23.260;2022-07-29T07:25:51;94311.41;;;26.99;49.17
20009;BME280;10165;42.662;23.260;2022-07-29T07:28:19;94302.16;;;26.71;50.59
20009;BME280;10165;42.662;23.260;2022-07-29T07:30:50;94309.94;;;26.73;50.75
20009;BME280;10165;42.662;23.260;2022-07-29T07:33:17;94311.78;;;26.88;50.66
20009;BME280;10165;42.662;23.260;2022-07-29T07:35:44;94311.41;;;26.52;50.53
20009;BME280;10165;42.662;23.260;2022-07-29T07:38:11;94309.91;;;26.98;49.88
20009;BME280;10165;42.662;23.260;2022-07-29T07:40:38;94306.03;;;26.95;50.20
20009;BME280;10165;42.662;23.260;2022-07-29T07:43:04;94320.66;;;27.48;49.00
20009;BME280;10165;42.662;23.260;2022-07-29T07:45:31;94317.81;;;27.39;48.36
20009;BME280;10165;42.662;23.260;2022-07-29T07:48:04;94308.56;;;27.68;49.47
20009;BME280;10165;42.662;23.260;2022-07-29T07:50:31;94315.13;;;27.27;49.63
20009;BME280;10165;42.662;23.260;2022-07-29T07:52:58;94317.44;;;26.59;49.42
20009;BME280;10165;42.662;23.260;2022-07-29T07:55:25;94305.69;;;27.28;49.75
20009;BME280;10165;42.662;23.260;2022-07-29T07:57:52;94316.56;;;27.53;48.22
20009;BME280;10165;42.662;23.260;2022-07-29T08:00:19;94305.50;;;27.66;47.54
20009;BME280;10165;42.662;23.260;2022-07-29T08:02:49;94307.47;;;27.22;47.96
20009;BME280;10165;42.662;23.260;2022-07-29T08:05:17;94302.41;;;27.33;48.25
20009;BME280;10165;42.662;23.260;2022-07-29T08:07:47;94298.53;;;27.30;47.84
20009;BME280;10165;42.662;23.260;2022-07-29T08:10:15;94308.94;;;27.48;47.58
20009;BME280;10165;42.662;23.260;2022-07-29T08:13:06;94305.78;;;27.02;47.51
20009;BME280;10165;42.662;23.260;2022-07-29T08:15:33;94302.41;;;27.33;48.26
20009;BME280;10165;42.662;23.260;2022-07-29T08:18:01;94296.78;;;27.58;45.66
20009;BME280;10165;42.662;23.260;2022-07-29T08:20:35;94305.31;;;27.38;46.36
20009;BME280;10165;42.662;23.260;2022-07-29T08:23:02;94305.56;;;27.09;46.45
20009;BME280;10165;42.662;23.260;2022-07-29T08:25:30;94297.84;;;27.61;45.96
20009;BME280;10165;42.662;23.260;2022-07-29T08:27:59;94302.69;;;27.35;45.62
20009;BME280;10165;42.662;23.260;2022-07-29T08:30:26;94312.63;;;27.54;45.38
20009;BME280;10165;42.662;23.260;2022-07-29T08:32:53;94302.81;;;27.31;46.40
20009;BME280;10165;42.662;23.260;2022-07-29T08:35:22;94313.16;;;27.27;45.81
20009;BME280;10165;42.662;23.260;2022-07-29T08:37:49;94305.88;;;27.33;46.98
20009;BME280;10165;42.662;23.260;2022-07-29T08:40:17;94308.78;;;27.51;46.18
20009;BME280;10165;42.662;23.260;2022-07-29T08:42:43;94294.88;;;28.08;44.66
20009;BME280;10165;42.662;23.260;2022-07-29T08:45:10;94297.97;;;28.10;44.36
20009;BME280;10165;42.662;23.260;2022-07-29T08:47:38;94299.75;;;28.03;43.31
20009;BME280;10165;42.662;23.260;2022-07-29T08:50:09;94296.59;;;28.14;43.93
20009;BME280;10165;42.662;23.260;2022-07-29T08:52:39;94304.44;;;28.25;44.28
20009;BME280;10165;42.662;23.260;2022-07-29T08:55:08;94289.81;;;28.37;43.66
20009;BME280;10165;42.662;23.260;2022-07-29T08:57:35;94290.78;;;28.61;44.31
20009;BME280;10165;42.662;23.260;2022-07-29T09:00:17;94284.88;;;28.72;42.31
20009;BME280;10165;42.662;23.260;2022-07-29T09:02:47;94298.97;;;28.03;44.58
20009;BME280;10165;42.662;23.260;2022-07-29T09:05:19;94291.06;;;28.36;44.07
20009;BME280;10165;42.662;23.260;2022-07-29T09:07:46;94283.97;;;28.84;42.59
20009;BME280;10165;42.662;23.260;2022-07-29T09:10:14;94286.69;;;28.75;41.81
20009;BME280;10165;42.662;23.260;2022-07-29T09:12:41;94281.63;;;28.55;41.56
20009;BME280;10165;42.662;23.260;2022-07-29T09:15:08;94276.44;;;28.57;41.52
20009;BME280;10165;42.662;23.260;2022-07-29T09:17:44;94290.75;;;28.43;42.20
20009;BME280;10165;42.662;23.260;2022-07-29T09:20:15;94281.19;;;28.66;42.30
20009;BME280;10165;42.662;23.260;2022-07-29T09:22:42;94277.09;;;29.07;41.58
20009;BME280;10165;42.662;23.260;2022-07-29T09:25:11;94279.72;;;28.25;41.99
20009;BME280;10165;42.662;23.260;2022-07-29T09:27:38;94275.78;;;28.35;42.74
20009;BME280;10165;42.662;23.260;2022-07-29T09:30:07;94277.34;;;28.54;41.82
20009;BME280;10165;42.662;23.260;2022-07-29T09:32:57;94277.09;;;28.21;42.64
20009;BME280;10165;42.662;23.260;2022-07-29T09:35:25;94285.53;;;28.27;42.45
20009;BME280;10165;42.662;23.260;2022-07-29T09:37:53;94279.50;;;28.59;40.79
20009;BME280;10165;42.662;23.260;2022-07-29T09:40:25;94275.44;;;29.09;41.56
20009;BME280;10165;42.662;23.260;2022-07-29T09:42:53;94262.72;;;29.21;38.89
20009;BME280;10165;42.662;23.260;2022-07-29T09:45:28;94266.09;;;29.43;38.98
20009;BME280;10165;42.662;23.260;2022-07-29T09:47:56;94276.66;;;28.90;39.77
20009;BME280;10165;42.662;23.260;2022-07-29T09:50:40;94271.44;;;29.19;39.28
20009;BME280;10165;42.662;23.260;2022-07-29T09:53:07;94260.59;;;29.07;39.17
20009;BME280;10165;42.662;23.260;2022-07-29T09:58:18;94265.94;;;29.37;38.90
20009;BME280;10165;42.662;23.260;2022-07-29T10:00:46;94254.59;;;29.44;39.48
20009;BME280;10165;42.662;23.260;2022-07-29T10:03:14;94254.97;;;29.88;39.39
20009;BME280;10165;42.662;23.260;2022-07-29T10:05:42;94247.16;;;29.87;39.68
20009;BME280;10165;42.662;23.260;2022-07-29T10:08:11;94250.91;;;29.66;40.22
20009;BME280;10165;42.662;23.260;2022-07-29T10:10:42;94248.66;;;29.10;40.31
20009;BME280;10165;42.662;23.260;2022-07-29T10:13:11;94243.19;;;29.28;40.07
20009;BME280;10165;42.662;23.260;2022-07-29T10:15:44;94239.69;;;29.87;39.68
20009;BME280;10165;42.662;23.260;2022-07-29T10:18:14;94236.41;;;29.98;40.36
20009;BME280;10165;42.662;23.260;2022-07-29T10:20:44;94233.53;;;29.83;40.54
20009;BME280;10165;42.662;23.260;2022-07-29T10:23:11;94232.75;;;29.41;39.58
20009;BME280;10165;42.662;23.260;2022-07-29T10:25:39;94231.50;;;30.02;39.61
20009;BME280;10165;42.662;23.260;2022-07-29T10:28:11;94234.06;;;30.06;38.91
20009;BME280;10165;42.662;23.260;2022-07-29T10:30:42;94227.06;;;30.28;38.48
20009;BME280;10165;42.662;23.260;2022-07-29T10:38:27;94222.22;;;29.90;38.26
20009;BME280;10165;42.662;23.260;2022-07-29T10:44:06;94220.06;;;30.27;36.91
20009;BME280;10165;42.662;23.260;2022-07-29T10:46:42;94216.66;;;30.00;38.77
20009;BME280;10165;42.662;23.260;2022-07-29T10:57:30;94197.81;;;30.31;38.36
20009;BME280;10165;42.662;23.260;2022-07-29T11:02:45;94191.78;;;30.42;38.02
20009;BME280;10165;42.662;23.260;2022-07-29T11:05:17;94182.50;;;30.77;38.54
20009;BME280;10165;42.662;23.260;2022-07-29T11:10:47;94184.44;;;30.15;38.45
20009;BME280;10165;42.662;23.260;2022-07-29T11:13:49;94185.31;;;30.21;37.88
20009;BME280;10165;42.662;23.260;2022-07-29T11:16:22;94185.19;;;30.63;37.06
20009;BME280;10165;42.662;23.260;2022-07-29T11:21:42;94180.56;;;30.21;39.97
20009;BME280;10165;42.662;23.260;2022-07-29T11:27:15;94175.44;;;31.59;36.34
20009;BME280;10165;42.662;23.260;2022-07-29T11:29:56;94180.03;;;30.94;36.92
20009;BME280;10165;42.662;23.260;2022-07-29T11:32:38;94179.19;;;30.88;37.40
20009;BME280;10165;42.662;23.260;2022-07-29T11:35:21;94175.94;;;30.27;38.05
20009;BME280;10165;42.662;23.260;2022-07-29T11:46:48;94166.25;;;31.82;35.15
20009;BME280;10165;42.662;23.260;2022-07-29T11:49:21;94147.41;;;32.01;34.83
20009;BME280;10165;42.662;23.260;2022-07-29T11:51:58;94164.97;;;30.66;35.71
20009;BME280;10165;42.662;23.260;2022-07-29T11:54:33;94165.19;;;30.77;36.09
20009;BME280;10165;42.662;23.260;2022-07-29T11:57:20;94165.66;;;30.75;35.83
20009;BME280;10165;42.662;23.260;2022-07-29T11:59:47;94167.50;;;30.93;34.82
20009;BME280;10165;42.662;23.260;2022-07-29T12:02:16;94155.44;;;31.49;35.23
20009;BME280;10165;42.662;23.260;2022-07-29T12:05:03;94156.41;;;31.32;33.93
20009;BME280;10165;42.662;23.260;2022-07-29T12:07:37;94150.75;;;32.05;33.13
20009;BME280;10165;42.662;23.260;2022-07-29T12:10:07;94152.13;;;31.95;32.94
20009;BME280;10165;42.662;23.260;2022-07-29T12:12:50;94147.97;;;31.70;33.52
20009;BME280;10165;42.662;23.260;2022-07-29T12:15:18;94158.38;;;31.02;33.32
20009;BME280;10165;42.662;23.260;2022-07-29T12:17:47;94144.31;;;31.58;33.14
20009;BME280;10165;42.662;23.260;2022-07-29T12:20:26;94151.63;;;31.47;33.05
20009;BME280;10165;42.662;23.260;2022-07-29T12:22:55;94150.78;;;32.25;32.56
20009;BME280;10165;42.662;23.260;2022-07-29T12:25:23;94155.63;;;31.46;33.41
20009;BME280;10165;42.662;23.260;2022-07-29T12:28:01;94161.94;;;31.32;33.19
20009;BME280;10165;42.662;23.260;2022-07-29T12:30:36;94157.25;;;31.08;35.09
20009;BME280;10165;42.662;23.260;2022-07-29T12:33:17;94149.03;;;31.72;32.72
20009;BME280;10165;42.662;23.260;2022-07-29T12:35:50;94145.63;;;31.48;34.05
20009;BME280;10165;42.662;23.260;2022-07-29T12:38:36;94148.72;;;31.85;31.87
20009;BME280;10165;42.662;23.260;2022-07-29T12:41:03;94139.94;;;31.08;32.59
20009;BME280;10165;42.662;23.260;2022-07-29T12:43:30;94150.41;;;31.04;32.62
20009;BME280;10165;42.662;23.260;2022-07-29T12:46:10;94146.63;;;30.77;33.29
20009;BME280;10165;42.662;23.260;2022-07-29T12:48:40;94132.50;;;31.58;32.66
20009;BME280;10165;42.662;23.260;2022-07-29T12:51:09;94136.97;;;31.90;31.88
20009;BME280;10165;42.662;23.260;2022-07-29T12:53:36;94130.47;;;31.44;32.64
20009;BME280;10165;42.662;23.260;2022-07-29T12:56:04;94135.91;;;31.67;32.33
20009;BME280;10165;42.662;23.260;2022-07-29T12:58:51;94117.88;;;32.47;32.46
20009;BME280;10165;42.662;23.260;2022-07-29T13:01:18;94122.41;;;31.90;31.96
20009;BME280;10165;42.662;23.260;2022-07-29T13:03:55;94120.44;;;32.10;31.32
20009;BME280;10165;42.662;23.260;2022-07-29T13:06:45;94114.31;;;31.22;32.47
20009;BME280;10165;42.662;23.260;2022-07-29T13:09:18;94113.13;;;32.28;31.15
20009;BME280;10165;42.662;23.260;2022-07-29T13:11:51;94114.44;;;32.32;30.43
20009;BME280;10165;42.662;23.260;2022-07-29T13:14:35;94105.25;;;32.61;31.09
20009;BME280;10165;42.662;23.260;2022-07-29T13:22:03;94115.22;;;30.60;32.65
20009;BME280;10165;42.662;23.260;2022-07-29T13:24:29;94110.13;;;31.26;32.35
20009;BME280;10165;42.662;23.260;2022-07-29T13:26:56;94109.19;;;31.15;32.14
20009;BME280;10165;42.662;23.260;2022-07-29T13:29:23;94097.25;;;31.88;32.00
20009;BME280;10165;42.662;23.260;2022-07-29T13:31:55;94094.38;;;31.97;31.65
20009;BME280;10165;42.662;23.260;2022-07-29T13:34:22;94092.94;;;31.66;31.87
20009;BME280;10165;42.662;23.260;2022-07-29T13:36:50;94085.25;;;31.91;31.74
20009;BME280;10165;42.662;23.260;2022-07-29T13:39:17;94086.44;;;32.24;31.66
20009;BME280;10165;42.662;23.260;2022-07-29T13:41:43;94077.75;;;32.11;32.34
20009;BME280;10165;42.662;23.260;2022-07-29T13:44:10;94082.16;;;32.64;30.70
20009;BME280;10165;42.662;23.260;2022-07-29T13:46:37;94079.78;;;32.57;30.70
20009;BME280;10165;42.662;23.260;2022-07-29T13:49:05;94079.66;;;31.85;31.30
20009;BME280;10165;42.662;23.260;2022-07-29T13:51:32;94078.44;;;30.93;32.67
20009;BME280;10165;42.662;23.260;2022-07-29T13:53:59;94082.50;;;31.41;32.20
20009;BME280;10165;42.662;23.260;2022-07-29T13:56:25;94089.16;;;31.49;31.79
20009;BME280;10165;42.662;23.260;2022-07-29T13:58:52;94082.03;;;31.43;31.77
20009;BME280;10165;42.662;23.260;2022-07-29T14:01:19;94073.78;;;31.98;30.88
20009;BME280;10165;42.662;23.260;2022-07-29T14:03:46;94073.47;;;32.56;30.59